createdAt,value
2023-02-09T00:02:52.588Z,77.98
2023-02-09T00:07:54.342Z,79.81
2023-02-09T00:13:17.094Z,80.46
2023-02-09T00:18:19.514Z,79.27
2023-02-09T00:23:21.269Z,78.62
2023-02-09T00:28:23.105Z,77.96
2023-02-09T00:33:26.832Z,77.25
2023-02-09T00:38:29.016Z,78.50
2023-02-09T00:43:31.195Z,78.62
2023-02-09T00:48:39.782Z,78.66
2023-02-09T00:53:41.704Z,79.44
2023-02-09T00:58:43.592Z,79.96
2023-02-09T01:03:45.509Z,80.54
2023-02-09T01:08:47.475Z,80.64
2023-02-09T01:13:49.149Z,80.73
2023-02-09T01:18:51.180Z,80.78
2023-02-09T01:23:52.953Z,80.34
2023-02-09T01:28:55.280Z,79.80
2023-02-09T01:33:58.094Z,79.63
2023-02-09T01:39:03.086Z,80.67
2023-02-09T01:44:06.739Z,80.72
2023-02-09T01:49:15.412Z,78.56
2023-02-09T01:54:20.460Z,78.47
2023-02-09T01:59:22.284Z,78.26
2023-02-09T02:04:24.129Z,78.09
2023-02-09T02:09:26.134Z,79.62
2023-02-09T02:14:35.846Z,80.03
2023-02-09T02:19:56.771Z,79.87
2023-02-09T02:25:19.479Z,79.55
2023-02-09T02:30:40.140Z,80.03
2023-02-09T02:35:51.477Z,79.60
2023-02-09T02:40:53.261Z,78.00
2023-02-09T02:46:00.724Z,77.60
2023-02-09T02:51:05.226Z,78.18
2023-02-09T02:56:14.229Z,79.04
2023-02-09T03:01:18.939Z,77.45
2023-02-09T03:06:20.776Z,77.54
2023-02-09T03:11:23.708Z,78.05
2023-02-09T03:16:37.523Z,77.25
2023-02-09T03:21:51.341Z,77.21
2023-02-09T03:26:59.463Z,77.68
2023-02-09T03:32:01.504Z,79.06
2023-02-09T03:37:03.497Z,77.99
2023-02-09T03:42:05.359Z,78.28
2023-02-09T03:47:09.088Z,78.29
2023-02-09T03:52:12.772Z,78.47
2023-02-09T03:57:14.610Z,78.08
2023-02-09T04:02:16.584Z,78.23
2023-02-09T04:07:18.363Z,78.14
2023-02-09T04:12:20.118Z,78.74
2023-02-09T04:17:21.846Z,78.24
2023-02-09T04:22:23.589Z,77.25
2023-02-09T04:27:27.192Z,76.82
2023-02-09T04:32:29.047Z,75.88
2023-02-09T04:37:30.776Z,76.08
2023-02-09T04:42:32.378Z,75.88
2023-02-09T04:47:34.088Z,76.15
2023-02-09T04:52:35.878Z,76.67
2023-02-09T04:57:56.624Z,76.63
2023-02-09T05:02:58.324Z,76.63
2023-02-09T05:08:00.114Z,76.33
2023-02-09T05:13:01.883Z,76.09
2023-02-09T05:18:03.719Z,75.63
2023-02-09T05:23:05.509Z,75.60
2023-02-09T05:28:07.468Z,75.05
2023-02-09T05:33:09.562Z,74.72
2023-02-09T05:38:11.205Z,75.52
2023-02-09T05:43:13.073Z,75.98
2023-02-09T05:48:15.073Z,76.73
2023-02-09T05:53:17.120Z,76.99
2023-02-09T05:58:18.856Z,78.31
2023-02-09T06:03:20.676Z,79.52
2023-02-09T06:08:22.596Z,80.53
2023-02-09T06:13:24.561Z,80.55
2023-02-09T06:18:26.561Z,80.56
2023-02-09T06:23:28.348Z,80.40
2023-02-09T06:28:30.131Z,80.66
2023-02-09T06:33:32.588Z,80.38
2023-02-09T06:38:35.259Z,80.53
2023-02-09T06:47:58.358Z,80.18
2023-02-09T06:53:00.962Z,79.59
2023-02-09T06:58:03.274Z,78.75
2023-02-09T07:03:05.033Z,78.00
2023-02-09T07:08:06.835Z,77.92
2023-02-09T07:13:08.427Z,77.78
2023-02-09T07:18:15.913Z,77.79
2023-02-09T07:23:17.508Z,77.10
2023-02-09T07:28:22.968Z,76.61
2023-02-09T07:33:24.733Z,75.87
2023-02-09T07:38:26.306Z,75.36
2023-02-09T07:43:28.412Z,74.61
2023-02-09T07:48:30.649Z,73.96
2023-02-09T07:53:33.306Z,73.63
2023-02-09T07:58:35.184Z,73.09
2023-02-09T08:03:37.824Z,72.68
2023-02-09T08:08:39.473Z,72.45
2023-02-09T08:13:41.678Z,71.79
2023-02-09T08:18:50.378Z,71.84
2023-02-09T08:23:55.592Z,71.27
2023-02-09T08:28:58.009Z,70.54
2023-02-09T08:33:59.917Z,68.93
2023-02-09T08:39:03.194Z,68.00
2023-02-09T08:44:05.049Z,67.17
2023-02-09T08:49:06.727Z,66.40
2023-02-09T08:54:08.345Z,65.98
2023-02-09T08:59:10.481Z,65.95
2023-02-09T09:04:12.378Z,65.12
2023-02-09T09:09:14.645Z,64.93
2023-02-09T09:14:16.326Z,63.39
2023-02-09T09:19:18.003Z,63.18
2023-02-09T09:24:19.950Z,62.29
2023-02-09T09:29:21.855Z,61.93
2023-02-09T09:34:23.541Z,60.61
2023-02-09T09:39:25.767Z,61.03
2023-02-09T09:44:40.927Z,60.30
2023-02-09T09:49:43.153Z,59.45
2023-02-09T09:54:45.743Z,58.49
2023-02-09T09:59:47.708Z,57.46
2023-02-09T10:04:50.135Z,58.22
2023-02-09T10:10:02.490Z,56.96
2023-02-09T10:15:29.098Z,55.97
2023-02-09T10:20:52.516Z,55.66
2023-02-09T10:26:00.825Z,54.17
2023-02-09T10:31:10.251Z,53.52
2023-02-09T10:36:36.578Z,52.40
2023-02-09T10:41:41.948Z,51.31
2023-02-09T10:46:44.132Z,50.44
2023-02-09T10:51:45.798Z,50.37
2023-02-09T10:56:49.321Z,51.30
2023-02-09T11:02:02.191Z,50.14
2023-02-09T11:07:10.197Z,49.94
2023-02-09T11:12:13.080Z,49.04
2023-02-09T11:17:40.064Z,48.83
2023-02-09T11:23:14.896Z,49.64
2023-02-09T11:28:47.983Z,48.18
2023-02-09T11:33:57.555Z,48.74
2023-02-09T11:39:03.078Z,48.80
2023-02-09T11:44:07.806Z,47.40
2023-02-09T11:49:17.951Z,46.79
2023-02-09T11:54:27.249Z,46.17
2023-02-09T11:59:39.082Z,45.73
2023-02-09T12:04:54.568Z,43.37
2023-02-09T12:10:34.180Z,43.26
2023-02-09T12:15:44.000Z,42.61
2023-02-09T12:21:00.766Z,42.38
2023-02-09T12:26:36.214Z,41.48
2023-02-09T12:32:03.250Z,41.56
2023-02-09T12:37:14.365Z,41.11
2023-02-09T12:42:16.033Z,40.73
2023-02-09T12:47:45.612Z,41.87
2023-02-09T12:53:21.886Z,42.43
2023-02-09T12:58:35.197Z,41.65
2023-02-09T13:03:56.077Z,40.67
2023-02-09T13:09:02.333Z,40.59
2023-02-09T13:14:07.658Z,41.15
2023-02-09T13:19:47.030Z,41.35
2023-02-09T13:25:00.823Z,41.26
2023-02-09T13:30:02.528Z,41.58
2023-02-09T13:35:25.832Z,41.67
2023-02-09T13:40:35.048Z,41.54
2023-02-09T13:45:51.206Z,42.20
2023-02-09T13:50:55.247Z,42.37
2023-02-09T13:56:00.401Z,42.02
2023-02-09T14:01:35.906Z,42.26
2023-02-09T14:07:01.668Z,41.61
2023-02-09T14:12:09.723Z,41.64
2023-02-09T14:17:25.244Z,41.55
2023-02-09T14:22:30.887Z,41.54
2023-02-09T14:27:34.820Z,41.77
2023-02-09T14:32:40.464Z,41.76
2023-02-09T14:37:43.751Z,41.50
2023-02-09T14:43:03.698Z,41.28
2023-02-09T14:48:20.778Z,42.06
2023-02-09T14:53:24.768Z,43.11
2023-02-09T14:58:31.916Z,42.34
2023-02-09T15:03:33.698Z,41.93
2023-02-09T15:08:38.029Z,42.60
2023-02-09T15:13:40.184Z,42.26
2023-02-09T15:18:42.199Z,42.72
2023-02-09T15:23:44.044Z,43.38
2023-02-09T15:28:46.170Z,44.24
2023-02-09T15:33:47.946Z,44.41
2023-02-09T15:38:49.677Z,45.23
2023-02-09T15:44:10.348Z,46.11
2023-02-09T15:49:12.273Z,46.86
2023-02-09T15:54:19.908Z,47.95
2023-02-09T15:59:23.502Z,48.85
2023-02-09T16:04:25.331Z,49.68
2023-02-09T16:09:29.147Z,50.39
2023-02-09T16:14:31.821Z,50.82
2023-02-09T16:19:33.924Z,51.25
2023-02-09T16:24:45.221Z,51.82
2023-02-09T16:29:47.061Z,52.59
2023-02-09T16:34:49.769Z,53.17
2023-02-09T16:39:51.556Z,53.71
2023-02-09T16:44:53.560Z,54.35
2023-02-09T16:50:02.720Z,54.79
2023-02-09T16:55:07.101Z,55.22
2023-02-09T17:00:09.914Z,55.31
2023-02-09T17:05:21.725Z,55.41
2023-02-09T17:10:28.429Z,55.68
2023-02-09T17:15:36.420Z,55.91
2023-02-09T17:20:43.261Z,55.96
2023-02-09T17:25:45.878Z,56.07
2023-02-09T17:30:49.703Z,56.30
2023-02-09T17:36:23.672Z,56.56
2023-02-09T17:41:17.862Z,56.86
2023-02-09T17:46:20.300Z,57.01
2023-02-09T17:51:30.597Z,57.39
2023-02-09T17:56:32.717Z,57.60
2023-02-09T18:01:41.016Z,58.05
2023-02-09T18:06:43.222Z,58.07
2023-02-09T18:11:44.947Z,58.35
2023-02-09T18:16:47.862Z,58.46
2023-02-09T18:21:54.053Z,58.77
2023-02-09T18:26:56.031Z,58.97
2023-02-09T18:32:03.245Z,59.51
2023-02-09T18:37:05.235Z,59.76
2023-02-09T18:42:11.451Z,60.04
2023-02-09T18:47:13.388Z,60.53
2023-02-09T18:52:17.279Z,60.69
2023-02-09T18:57:19.046Z,60.89
2023-02-09T19:02:20.752Z,61.13
2023-02-09T19:07:22.456Z,61.11
2023-02-09T19:12:26.212Z,61.43
2023-02-09T19:17:29.853Z,61.48
2023-02-09T19:22:32.113Z,61.56
2023-02-09T19:27:34.052Z,61.56
2023-02-09T19:32:38.183Z,61.53
2023-02-09T19:37:42.207Z,61.35
2023-02-09T19:42:44.413Z,60.85
2023-02-09T19:47:46.238Z,60.71
2023-02-09T19:52:49.108Z,60.42
2023-02-09T19:57:50.886Z,60.32
2023-02-09T20:02:52.609Z,59.80
2023-02-09T20:07:54.474Z,59.95
2023-02-09T20:12:56.375Z,59.91
2023-02-09T20:17:58.454Z,59.62
2023-02-09T20:23:00.331Z,59.64
2023-02-09T20:28:02.352Z,59.75
2023-02-09T20:33:04.106Z,59.70
2023-02-09T20:38:05.751Z,59.94
2023-02-09T20:43:26.449Z,59.90
2023-02-09T20:48:28.373Z,60.22
2023-02-09T20:53:30.362Z,60.39
2023-02-09T20:58:32.029Z,60.64
2023-02-09T21:03:33.720Z,60.93
2023-02-09T21:08:38.210Z,60.89
2023-02-09T21:13:41.242Z,61.07
2023-02-09T21:18:44.376Z,61.56
2023-02-09T21:23:46.656Z,61.56
2023-02-09T21:28:48.681Z,60.56
2023-02-09T21:33:50.412Z,60.43
2023-02-09T21:38:52.292Z,60.52
2023-02-09T21:43:53.860Z,60.06
2023-02-09T21:48:56.254Z,59.73
2023-02-09T21:53:58.018Z,59.74
2023-02-09T21:58:59.925Z,59.76
2023-02-09T22:04:02.221Z,60.20
2023-02-09T22:09:06.256Z,60.57
2023-02-09T22:14:11.901Z,60.72
2023-02-09T22:19:13.843Z,61.10
2023-02-09T22:24:16.767Z,61.20
2023-02-09T22:29:18.749Z,61.58
2023-02-09T22:34:20.459Z,61.85
2023-02-09T22:39:22.501Z,62.14
2023-02-09T22:44:26.618Z,62.37
2023-02-09T22:49:28.598Z,62.58
2023-02-09T22:54:30.522Z,62.70
2023-02-09T22:59:32.313Z,62.97
2023-02-09T23:04:34.059Z,63.24
2023-02-09T23:09:35.743Z,63.56
2023-02-09T23:14:37.482Z,63.91
2023-02-09T23:19:40.314Z,64.46
2023-02-09T23:24:42.105Z,64.56
2023-02-09T23:29:43.913Z,65.00
2023-02-09T23:34:45.570Z,65.27
2023-02-09T23:39:47.346Z,65.47
2023-02-09T23:44:49.072Z,65.54
2023-02-09T23:49:50.827Z,65.79
2023-02-09T23:54:52.614Z,66.08
2023-02-09T23:59:54.285Z,65.96
